EWG1A EDDL-EGLL
Flight info
| Callsign | EWG1A |
|---|---|
| Flight time | 1h 0m |
| Altitude | 18000 |
| Route | NETEX4Z NETEX Z282 DIBIR L179 ROMIN/N0429F320 L179 SASKI L608 LOGAN |
| Aircraft | A320/M-SDE3FGHIRWY/LB1 |
Departure
| Time | 2026-05-07 15:24 |
|---|---|
| Airport | Düsseldorf Airport (EDDL) |
Arrival
| Time | 2026-05-07 16:25 |
|---|---|
| Airport | London Heathrow Airport (EGLL) |
| Time | Latitude | Longitude | Altitude | Speed | Heading |
|---|---|---|---|---|---|
| 2026-05-07 15:05 | 51.28667 | 6.77454 | 126 ft | 0 kts | 322° |
| 2026-05-07 15:18 | 51.28660 | 6.77464 | 122 ft | 4 kts | 322° |
| 2026-05-07 15:19 | 51.28639 | 6.77490 | 125 ft | 4 kts | 315° |
| 2026-05-07 15:19 | 51.28628 | 6.77511 | 123 ft | 4 kts | 291° |
| 2026-05-07 15:19 | 51.28626 | 6.77535 | 126 ft | 0 kts | 232° |
| 2026-05-07 15:20 | 51.28624 | 6.77530 | 125 ft | 1 kts | 232° |
| 2026-05-07 15:21 | 51.28613 | 6.77508 | 126 ft | 2 kts | 232° |
| 2026-05-07 15:21 | 51.28605 | 6.77492 | 125 ft | 2 kts | 232° |
| 2026-05-07 15:21 | 51.28593 | 6.77466 | 127 ft | 6 kts | 232° |
| 2026-05-07 15:21 | 51.28540 | 6.77353 | 126 ft | 19 kts | 236° |
| 2026-05-07 15:22 | 51.28467 | 6.77190 | 127 ft | 17 kts | 232° |
| 2026-05-07 15:22 | 51.28398 | 6.77046 | 125 ft | 15 kts | 232° |
| 2026-05-07 15:22 | 51.28354 | 6.76910 | 127 ft | 13 kts | 279° |
| 2026-05-07 15:22 | 51.28418 | 6.76812 | 126 ft | 14 kts | 321° |
| 2026-05-07 15:23 | 51.28505 | 6.76759 | 122 ft | 14 kts | 341° |
| 2026-05-07 15:23 | 51.28579 | 6.76680 | 127 ft | 12 kts | 326° |
| 2026-05-07 15:23 | 51.28641 | 6.76646 | 126 ft | 9 kts | 18° |
| 2026-05-07 15:23 | 51.28656 | 6.76663 | 125 ft | 0 kts | 42° |
| 2026-05-07 15:24 | 51.28706 | 6.76764 | 127 ft | 44 kts | 52° |
| 2026-05-07 15:24 | 51.29077 | 6.77539 | 126 ft | 128 kts | 53° |
| 2026-05-07 15:24 | 51.29728 | 6.78888 | 405 ft | 162 kts | 52° |
| 2026-05-07 15:24 | 51.30419 | 6.80369 | 1218 ft | 172 kts | 51° |
| 2026-05-07 15:25 | 51.31142 | 6.81990 | 2017 ft | 187 kts | 52° |
| 2026-05-07 15:25 | 51.31952 | 6.83735 | 2701 ft | 206 kts | 51° |
| 2026-05-07 15:25 | 51.32819 | 6.85538 | 3418 ft | 204 kts | 51° |
| 2026-05-07 15:25 | 51.33728 | 6.87406 | 3875 ft | 222 kts | 51° |
| 2026-05-07 15:26 | 51.34774 | 6.89335 | 4618 ft | 235 kts | 41° |
| 2026-05-07 15:26 | 51.36161 | 6.90793 | 5498 ft | 251 kts | 18° |
| 2026-05-07 15:26 | 51.37927 | 6.91297 | 6509 ft | 262 kts | 6° |
| 2026-05-07 15:26 | 51.39714 | 6.91650 | 7479 ft | 268 kts | 7° |
| 2026-05-07 15:27 | 51.41611 | 6.92047 | 8585 ft | 276 kts | 7° |
| 2026-05-07 15:27 | 51.43513 | 6.92541 | 9724 ft | 284 kts | 9° |
| 2026-05-07 15:27 | 51.45506 | 6.93033 | 10557 ft | 301 kts | 1° |
| 2026-05-07 15:27 | 51.47633 | 6.92542 | 11206 ft | 318 kts | 338° |
| 2026-05-07 15:28 | 51.49567 | 6.90792 | 12158 ft | 324 kts | 319° |
| 2026-05-07 15:28 | 51.51061 | 6.88090 | 13205 ft | 326 kts | 301° |
| 2026-05-07 15:28 | 51.52013 | 6.84767 | 14201 ft | 330 kts | 290° |
| 2026-05-07 15:28 | 51.52844 | 6.81303 | 15164 ft | 334 kts | 290° |
| 2026-05-07 15:29 | 51.53680 | 6.77792 | 16049 ft | 339 kts | 290° |
| 2026-05-07 15:29 | 51.54525 | 6.74230 | 16927 ft | 343 kts | 289° |
| 2026-05-07 15:29 | 51.55135 | 6.70512 | 17785 ft | 347 kts | 277° |
| 2026-05-07 15:29 | 51.55204 | 6.66625 | 18601 ft | 350 kts | 264° |
| 2026-05-07 15:30 | 51.54663 | 6.62801 | 19343 ft | 354 kts | 253° |
| 2026-05-07 15:30 | 51.53933 | 6.58902 | 19595 ft | 374 kts | 253° |
| 2026-05-07 15:30 | 51.53165 | 6.54833 | 20017 ft | 385 kts | 253° |
| 2026-05-07 15:30 | 51.52375 | 6.50692 | 20593 ft | 390 kts | 253° |
| 2026-05-07 15:31 | 51.51574 | 6.46510 | 21172 ft | 394 kts | 253° |
| 2026-05-07 15:31 | 51.50767 | 6.42296 | 21724 ft | 397 kts | 253° |
| 2026-05-07 15:31 | 51.49949 | 6.38043 | 22250 ft | 400 kts | 252° |
| 2026-05-07 15:31 | 51.49122 | 6.33769 | 22753 ft | 403 kts | 252° |
| 2026-05-07 15:32 | 51.48288 | 6.29459 | 23234 ft | 406 kts | 252° |
| 2026-05-07 15:32 | 51.47449 | 6.25122 | 23677 ft | 408 kts | 252° |
| 2026-05-07 15:32 | 51.46606 | 6.20765 | 24064 ft | 410 kts | 252° |
| 2026-05-07 15:32 | 51.45755 | 6.16387 | 24444 ft | 412 kts | 252° |
| 2026-05-07 15:33 | 51.44898 | 6.12000 | 24807 ft | 414 kts | 252° |
| 2026-05-07 15:33 | 51.44036 | 6.07590 | 25161 ft | 416 kts | 252° |
| 2026-05-07 15:33 | 51.43461 | 6.04655 | 25397 ft | 417 kts | 252° |
| 2026-05-07 15:33 | 51.42298 | 5.98712 | 25854 ft | 420 kts | 252° |
| 2026-05-07 15:34 | 51.41422 | 5.94248 | 26189 ft | 422 kts | 252° |
| 2026-05-07 15:34 | 51.40538 | 5.89749 | 26519 ft | 424 kts | 252° |
| 2026-05-07 15:34 | 51.39649 | 5.85244 | 26843 ft | 425 kts | 252° |
| 2026-05-07 15:34 | 51.38752 | 5.80719 | 27158 ft | 427 kts | 252° |
| 2026-05-07 15:35 | 51.37851 | 5.76184 | 27471 ft | 429 kts | 252° |
| 2026-05-07 15:35 | 51.36941 | 5.71619 | 27779 ft | 431 kts | 252° |
| 2026-05-07 15:35 | 51.36028 | 5.67049 | 28080 ft | 432 kts | 252° |
| 2026-05-07 15:35 | 51.35109 | 5.62458 | 28365 ft | 434 kts | 252° |
| 2026-05-07 15:36 | 51.34190 | 5.57871 | 28641 ft | 435 kts | 252° |
| 2026-05-07 15:36 | 51.33260 | 5.53244 | 28903 ft | 437 kts | 252° |
| 2026-05-07 15:36 | 51.32329 | 5.48624 | 29165 ft | 438 kts | 252° |
| 2026-05-07 15:36 | 51.31390 | 5.43983 | 29415 ft | 440 kts | 252° |
| 2026-05-07 15:37 | 51.30444 | 5.39328 | 29678 ft | 440 kts | 252° |
| 2026-05-07 15:37 | 51.29497 | 5.34670 | 30012 ft | 440 kts | 252° |
| 2026-05-07 15:37 | 51.28553 | 5.30030 | 30307 ft | 439 kts | 252° |
| 2026-05-07 15:37 | 51.27609 | 5.25402 | 30582 ft | 438 kts | 252° |
| 2026-05-07 15:38 | 51.26664 | 5.20775 | 30865 ft | 437 kts | 252° |
| 2026-05-07 15:38 | 51.25724 | 5.16175 | 31152 ft | 436 kts | 252° |
| 2026-05-07 15:38 | 51.24783 | 5.11579 | 31429 ft | 436 kts | 252° |
| 2026-05-07 15:38 | 51.23841 | 5.06985 | 31697 ft | 435 kts | 252° |
| 2026-05-07 15:39 | 51.22895 | 5.02394 | 31954 ft | 435 kts | 251° |
| 2026-05-07 15:39 | 51.21946 | 4.97801 | 32059 ft | 438 kts | 252° |
| 2026-05-07 15:39 | 51.20013 | 4.88488 | 32079 ft | 446 kts | 251° |
| 2026-05-07 15:40 | 51.18849 | 4.78785 | 32079 ft | 445 kts | 266° |
| 2026-05-07 15:40 | 51.18498 | 4.69079 | 32081 ft | 435 kts | 266° |
| 2026-05-07 15:41 | 51.18147 | 4.59530 | 32084 ft | 434 kts | 266° |
| 2026-05-07 15:41 | 51.17777 | 4.49813 | 32088 ft | 442 kts | 266° |
| 2026-05-07 15:42 | 51.17386 | 4.40016 | 32083 ft | 444 kts | 265° |
| 2026-05-07 15:42 | 51.16984 | 4.30206 | 32084 ft | 444 kts | 265° |
| 2026-05-07 15:43 | 51.16691 | 4.20397 | 32077 ft | 444 kts | 273° |
| 2026-05-07 15:43 | 51.17185 | 4.15551 | 32072 ft | 445 kts | 284° |
| 2026-05-07 15:43 | 51.18189 | 4.10878 | 32071 ft | 446 kts | 288° |
| 2026-05-07 15:44 | 51.20271 | 4.01642 | 32057 ft | 446 kts | 288° |
| 2026-05-07 15:44 | 51.22350 | 3.92324 | 32049 ft | 446 kts | 288° |
| 2026-05-07 15:45 | 51.24418 | 3.82999 | 32054 ft | 446 kts | 288° |
| 2026-05-07 15:45 | 51.26482 | 3.73664 | 32058 ft | 446 kts | 288° |
| 2026-05-07 15:46 | 51.29561 | 3.59632 | 32059 ft | 447 kts | 288° |
| 2026-05-07 15:47 | 51.31600 | 3.50296 | 32069 ft | 441 kts | 288° |
| 2026-05-07 15:47 | 51.33635 | 3.40929 | 32071 ft | 450 kts | 288° |
| 2026-05-07 15:48 | 51.35713 | 3.31425 | 32075 ft | 455 kts | 288° |
| 2026-05-07 15:48 | 51.37974 | 3.21913 | 32071 ft | 459 kts | 290° |
| 2026-05-07 15:49 | 51.40296 | 3.12377 | 32088 ft | 461 kts | 289° |
| 2026-05-07 15:49 | 51.42586 | 3.02772 | 32081 ft | 462 kts | 289° |
| 2026-05-07 15:50 | 51.44847 | 2.93100 | 32075 ft | 464 kts | 289° |
| 2026-05-07 15:50 | 51.47097 | 2.83386 | 32093 ft | 465 kts | 289° |
| 2026-05-07 15:51 | 51.49357 | 2.73689 | 32107 ft | 463 kts | 289° |
| 2026-05-07 15:51 | 51.51595 | 2.64036 | 32106 ft | 461 kts | 289° |
| 2026-05-07 15:52 | 51.53813 | 2.54383 | 32103 ft | 460 kts | 289° |
| 2026-05-07 15:52 | 51.56019 | 2.44739 | 32094 ft | 460 kts | 289° |
| 2026-05-07 15:53 | 51.58220 | 2.35097 | 32094 ft | 460 kts | 289° |
| 2026-05-07 15:53 | 51.60418 | 2.25416 | 32089 ft | 461 kts | 288° |
| 2026-05-07 15:53 | 51.61512 | 2.20582 | 31841 ft | 459 kts | 288° |
| 2026-05-07 15:54 | 51.62590 | 2.15821 | 31178 ft | 442 kts | 288° |
| 2026-05-07 15:54 | 51.63458 | 2.11242 | 30842 ft | 417 kts | 278° |
| 2026-05-07 15:54 | 51.63698 | 2.06672 | 30008 ft | 406 kts | 270° |
| 2026-05-07 15:54 | 51.63759 | 2.02171 | 29033 ft | 398 kts | 270° |
| 2026-05-07 15:55 | 51.63807 | 1.97748 | 28079 ft | 392 kts | 270° |
| 2026-05-07 15:55 | 51.63847 | 1.93393 | 27149 ft | 386 kts | 270° |
| 2026-05-07 15:55 | 51.63887 | 1.89097 | 26255 ft | 381 kts | 270° |
| 2026-05-07 15:55 | 51.63930 | 1.84859 | 25398 ft | 376 kts | 270° |
| 2026-05-07 15:56 | 51.63974 | 1.80705 | 24866 ft | 364 kts | 270° |
| 2026-05-07 15:56 | 51.64015 | 1.76718 | 24437 ft | 349 kts | 270° |
| 2026-05-07 15:56 | 51.64055 | 1.72884 | 24001 ft | 336 kts | 270° |
| 2026-05-07 15:56 | 51.64096 | 1.69194 | 23575 ft | 324 kts | 270° |
| 2026-05-07 15:57 | 51.64134 | 1.65630 | 23130 ft | 313 kts | 270° |
| 2026-05-07 15:57 | 51.64168 | 1.62129 | 22740 ft | 313 kts | 270° |
| 2026-05-07 15:57 | 51.64200 | 1.58469 | 22336 ft | 345 kts | 270° |
| 2026-05-07 15:57 | 51.64231 | 1.54397 | 21885 ft | 382 kts | 270° |
| 2026-05-07 15:58 | 51.64253 | 1.51486 | 21572 ft | 403 kts | 270° |
| 2026-05-07 15:58 | 51.64298 | 1.45184 | 20932 ft | 436 kts | 270° |
| 2026-05-07 15:58 | 51.64337 | 1.40370 | 20749 ft | 420 kts | 270° |
| 2026-05-07 15:58 | 51.64375 | 1.35802 | 20607 ft | 394 kts | 270° |
| 2026-05-07 15:59 | 51.64409 | 1.31556 | 20450 ft | 367 kts | 270° |
| 2026-05-07 15:59 | 51.64438 | 1.27538 | 19909 ft | 353 kts | 269° |
| 2026-05-07 15:59 | 51.64460 | 1.23621 | 19168 ft | 347 kts | 269° |
| 2026-05-07 15:59 | 51.64481 | 1.19768 | 18427 ft | 343 kts | 269° |
| 2026-05-07 16:00 | 51.64502 | 1.15955 | 17644 ft | 338 kts | 269° |
| 2026-05-07 16:00 | 51.64522 | 1.12254 | 17229 ft | 323 kts | 269° |
| 2026-05-07 16:00 | 51.64539 | 1.08712 | 16854 ft | 310 kts | 269° |
| 2026-05-07 16:00 | 51.64552 | 1.05212 | 16491 ft | 323 kts | 269° |
| 2026-05-07 16:01 | 51.64558 | 1.01479 | 16078 ft | 340 kts | 269° |
| 2026-05-07 16:01 | 51.64568 | 0.97656 | 15685 ft | 342 kts | 269° |
| 2026-05-07 16:01 | 51.64582 | 0.93823 | 15276 ft | 342 kts | 268° |
| 2026-05-07 16:01 | 51.64598 | 0.90005 | 14884 ft | 341 kts | 268° |
| 2026-05-07 16:02 | 51.64613 | 0.86198 | 14483 ft | 340 kts | 268° |
| 2026-05-07 16:02 | 51.64628 | 0.82449 | 14088 ft | 339 kts | 269° |
| 2026-05-07 16:02 | 51.64636 | 0.79883 | 13809 ft | 339 kts | 268° |
| 2026-05-07 16:02 | 51.64649 | 0.74880 | 13248 ft | 336 kts | 268° |
| 2026-05-07 16:03 | 51.64692 | 0.71138 | 13048 ft | 335 kts | 268° |
| 2026-05-07 16:03 | 51.64678 | 0.67426 | 12486 ft | 330 kts | 267° |
| 2026-05-07 16:03 | 51.64626 | 0.63738 | 12039 ft | 329 kts | 267° |
| 2026-05-07 16:03 | 51.64616 | 0.60067 | 11624 ft | 327 kts | 269° |
| 2026-05-07 16:04 | 51.64621 | 0.57595 | 11353 ft | 326 kts | 269° |
| 2026-05-07 16:04 | 51.64635 | 0.53957 | 10944 ft | 325 kts | 268° |
| 2026-05-07 16:04 | 51.64647 | 0.50333 | 10522 ft | 322 kts | 269° |
| 2026-05-07 16:04 | 51.64657 | 0.46747 | 10107 ft | 319 kts | 269° |
| 2026-05-07 16:05 | 51.64662 | 0.43177 | 9651 ft | 317 kts | 269° |
| 2026-05-07 16:05 | 51.64661 | 0.39647 | 9221 ft | 315 kts | 269° |
| 2026-05-07 16:05 | 51.64655 | 0.36139 | 8779 ft | 312 kts | 268° |
| 2026-05-07 16:05 | 51.64648 | 0.32650 | 8357 ft | 310 kts | 269° |
| 2026-05-07 16:06 | 51.64640 | 0.29193 | 7948 ft | 306 kts | 268° |
| 2026-05-07 16:06 | 51.64630 | 0.25949 | 7758 ft | 283 kts | 268° |
| 2026-05-07 16:06 | 51.64619 | 0.22835 | 7488 ft | 264 kts | 268° |
| 2026-05-07 16:06 | 51.64611 | 0.19990 | 7272 ft | 247 kts | 268° |
| 2026-05-07 16:07 | 51.64605 | 0.17273 | 6935 ft | 238 kts | 268° |
| 2026-05-07 16:07 | 51.64487 | 0.14644 | 7039 ft | 238 kts | 257° |
| 2026-05-07 16:07 | 51.64053 | 0.12097 | 6941 ft | 238 kts | 252° |
| 2026-05-07 16:07 | 51.63583 | 0.09546 | 6840 ft | 238 kts | 252° |
| 2026-05-07 16:08 | 51.63109 | 0.07001 | 6716 ft | 238 kts | 252° |
| 2026-05-07 16:08 | 51.62634 | 0.04462 | 6606 ft | 236 kts | 252° |
| 2026-05-07 16:08 | 51.62163 | 0.01933 | 6492 ft | 236 kts | 252° |
| 2026-05-07 16:08 | 51.61721 | -0.00513 | 6378 ft | 240 kts | 254° |
| 2026-05-07 16:09 | 51.61293 | -0.03387 | 6275 ft | 263 kts | 256° |
| 2026-05-07 16:09 | 51.60883 | -0.06242 | 6172 ft | 267 kts | 256° |
| 2026-05-07 16:09 | 51.60463 | -0.09152 | 6073 ft | 267 kts | 256° |
| 2026-05-07 16:09 | 51.60050 | -0.12008 | 5942 ft | 266 kts | 256° |
| 2026-05-07 16:10 | 51.59626 | -0.14932 | 5514 ft | 264 kts | 256° |
| 2026-05-07 16:10 | 51.59210 | -0.17814 | 5095 ft | 262 kts | 256° |
| 2026-05-07 16:10 | 51.58799 | -0.20660 | 4711 ft | 260 kts | 256° |
| 2026-05-07 16:10 | 51.58391 | -0.23477 | 4264 ft | 259 kts | 256° |
| 2026-05-07 16:11 | 51.57982 | -0.26279 | 4016 ft | 257 kts | 256° |
| 2026-05-07 16:11 | 51.57569 | -0.29092 | 4005 ft | 259 kts | 256° |
| 2026-05-07 16:11 | 51.57157 | -0.31904 | 4009 ft | 260 kts | 256° |
| 2026-05-07 16:11 | 51.56737 | -0.34743 | 4010 ft | 261 kts | 256° |
| 2026-05-07 16:12 | 51.56320 | -0.37569 | 4010 ft | 260 kts | 256° |
| 2026-05-07 16:12 | 51.55927 | -0.40239 | 4010 ft | 261 kts | 256° |
| 2026-05-07 16:12 | 51.55511 | -0.43065 | 4009 ft | 260 kts | 256° |
| 2026-05-07 16:12 | 51.55094 | -0.45899 | 4009 ft | 260 kts | 256° |
| 2026-05-07 16:13 | 51.54678 | -0.48728 | 4010 ft | 260 kts | 256° |
| 2026-05-07 16:13 | 51.54263 | -0.51544 | 4009 ft | 260 kts | 256° |
| 2026-05-07 16:13 | 51.53845 | -0.54365 | 3692 ft | 258 kts | 256° |
| 2026-05-07 16:13 | 51.53430 | -0.57162 | 3261 ft | 257 kts | 256° |
| 2026-05-07 16:14 | 51.53008 | -0.59944 | 2830 ft | 255 kts | 251° |
| 2026-05-07 16:14 | 51.52104 | -0.62304 | 2528 ft | 247 kts | 221° |
| 2026-05-07 16:14 | 51.50744 | -0.63793 | 2490 ft | 224 kts | 203° |
| 2026-05-07 16:14 | 51.49268 | -0.64085 | 2502 ft | 216 kts | 164° |
| 2026-05-07 16:15 | 51.48064 | -0.62786 | 2515 ft | 217 kts | 123° |
| 2026-05-07 16:15 | 51.47680 | -0.60517 | 2510 ft | 204 kts | 91° |
| 2026-05-07 16:15 | 51.47698 | -0.58398 | 2561 ft | 186 kts | 89° |
| 2026-05-07 16:15 | 51.47739 | -0.56133 | 2988 ft | 218 kts | 89° |
| 2026-05-07 16:16 | 51.47778 | -0.53556 | 3567 ft | 248 kts | 90° |
| 2026-05-07 16:16 | 51.47763 | -0.50893 | 3818 ft | 233 kts | 92° |
| 2026-05-07 16:16 | 51.47745 | -0.48173 | 3814 ft | 252 kts | 91° |
| 2026-05-07 16:16 | 51.47732 | -0.45408 | 3807 ft | 240 kts | 91° |
| 2026-05-07 16:17 | 51.47723 | -0.42790 | 3862 ft | 237 kts | 89° |
| 2026-05-07 16:17 | 51.48081 | -0.40337 | 3983 ft | 240 kts | 61° |
| 2026-05-07 16:17 | 51.49067 | -0.38214 | 4013 ft | 241 kts | 49° |
| 2026-05-07 16:17 | 51.50194 | -0.36222 | 4010 ft | 241 kts | 47° |
| 2026-05-07 16:18 | 51.51324 | -0.34241 | 4010 ft | 241 kts | 49° |
| 2026-05-07 16:18 | 51.52600 | -0.32551 | 3902 ft | 238 kts | 24° |
| 2026-05-07 16:18 | 51.54202 | -0.32104 | 3561 ft | 236 kts | 352° |
| 2026-05-07 16:18 | 51.55691 | -0.33077 | 3218 ft | 233 kts | 322° |
| 2026-05-07 16:19 | 51.56809 | -0.34929 | 3004 ft | 231 kts | 296° |
| 2026-05-07 16:19 | 51.57167 | -0.37404 | 2920 ft | 228 kts | 266° |
| 2026-05-07 16:19 | 51.56914 | -0.39904 | 2570 ft | 227 kts | 252° |
| 2026-05-07 16:19 | 51.56403 | -0.42309 | 2242 ft | 227 kts | 249° |
| 2026-05-07 16:20 | 51.55842 | -0.44683 | 2034 ft | 227 kts | 248° |
| 2026-05-07 16:20 | 51.55277 | -0.47045 | 2001 ft | 222 kts | 248° |
| 2026-05-07 16:20 | 51.54750 | -0.49292 | 1999 ft | 210 kts | 248° |
| 2026-05-07 16:20 | 51.54251 | -0.51416 | 2027 ft | 192 kts | 248° |
| 2026-05-07 16:21 | 51.53740 | -0.53232 | 2001 ft | 166 kts | 235° |
| 2026-05-07 16:21 | 51.53093 | -0.54614 | 2010 ft | 147 kts | 230° |
| 2026-05-07 16:21 | 51.52459 | -0.55853 | 2005 ft | 141 kts | 229° |
| 2026-05-07 16:21 | 51.51841 | -0.57053 | 2006 ft | 139 kts | 229° |
| 2026-05-07 16:22 | 51.51214 | -0.58258 | 1989 ft | 141 kts | 229° |
| 2026-05-07 16:22 | 51.50602 | -0.59435 | 1792 ft | 136 kts | 229° |
| 2026-05-07 16:22 | 51.49950 | -0.60516 | 1549 ft | 133 kts | 207° |
| 2026-05-07 16:22 | 51.48990 | -0.60808 | 1503 ft | 148 kts | 172° |
| 2026-05-07 16:23 | 51.48101 | -0.60072 | 1429 ft | 146 kts | 133° |
| 2026-05-07 16:23 | 51.47698 | -0.58542 | 1335 ft | 164 kts | 95° |
| 2026-05-07 16:23 | 51.47718 | -0.56775 | 1128 ft | 152 kts | 91° |
| 2026-05-07 16:23 | 51.47723 | -0.55119 | 935 ft | 145 kts | 91° |
| 2026-05-07 16:24 | 51.47730 | -0.53529 | 755 ft | 140 kts | 90° |
| 2026-05-07 16:24 | 51.47749 | -0.51984 | 566 ft | 137 kts | 90° |
| 2026-05-07 16:24 | 51.47752 | -0.50474 | 392 ft | 135 kts | 90° |
| 2026-05-07 16:24 | 51.47751 | -0.48998 | 193 ft | 133 kts | 89° |
| 2026-05-07 16:25 | 51.47751 | -0.47549 | 85 ft | 108 kts | 90° |
| 2026-05-07 16:25 | 51.47725 | -0.47108 | 88 ft | 9 kts | 167° |
| 2026-05-07 16:25 | 51.47672 | -0.47075 | 87 ft | 8 kts | 147° |
| 2026-05-07 16:25 | 51.47633 | -0.47037 | 88 ft | 6 kts | 160° |
| 2026-05-07 16:26 | 51.47613 | -0.47025 | 87 ft | 0 kts | 153° |
| 2026-05-07 16:27 | 51.47591 | -0.46989 | 86 ft | 11 kts | 133° |
| 2026-05-07 16:27 | 51.47519 | -0.46922 | 91 ft | 13 kts | 168° |
| 2026-05-07 16:27 | 51.47430 | -0.46889 | 86 ft | 13 kts | 167° |
| 2026-05-07 16:28 | 51.47338 | -0.46867 | 87 ft | 14 kts | 179° |
| 2026-05-07 16:28 | 51.47251 | -0.46866 | 86 ft | 8 kts | 179° |
| 2026-05-07 16:28 | 51.47200 | -0.46865 | 86 ft | 7 kts | 179° |
| 2026-05-07 16:28 | 51.47157 | -0.46864 | 86 ft | 6 kts | 179° |
| 2026-05-07 16:29 | 51.47104 | -0.46863 | 86 ft | 15 kts | 179° |
| 2026-05-07 16:29 | 51.46973 | -0.46863 | 86 ft | 21 kts | 179° |
| 2026-05-07 16:29 | 51.46820 | -0.46861 | 86 ft | 23 kts | 180° |
| 2026-05-07 16:29 | 51.46668 | -0.46834 | 88 ft | 21 kts | 134° |
| 2026-05-07 16:30 | 51.46658 | -0.46641 | 90 ft | 17 kts | 96° |
| 2026-05-07 16:30 | 51.46659 | -0.46437 | 89 ft | 19 kts | 91° |
| 2026-05-07 16:30 | 51.46660 | -0.46215 | 88 ft | 21 kts | 89° |
| 2026-05-07 16:30 | 51.46660 | -0.45975 | 89 ft | 22 kts | 90° |
| 2026-05-07 16:31 | 51.46663 | -0.45723 | 86 ft | 23 kts | 89° |
| 2026-05-07 16:31 | 51.46663 | -0.45461 | 86 ft | 24 kts | 90° |
| 2026-05-07 16:31 | 51.46663 | -0.45190 | 86 ft | 25 kts | 90° |
| 2026-05-07 16:31 | 51.46663 | -0.44924 | 86 ft | 22 kts | 89° |
| 2026-05-07 16:32 | 51.46731 | -0.44832 | 87 ft | 12 kts | 25° |
| 2026-05-07 16:32 | 51.46750 | -0.44721 | 86 ft | 11 kts | 88° |
| 2026-05-07 16:32 | 51.46760 | -0.44584 | 87 ft | 13 kts | 57° |
| 2026-05-07 16:32 | 51.46826 | -0.44564 | 86 ft | 6 kts | 328° |
| 2026-05-07 16:33 | 51.46825 | -0.44612 | 87 ft | 3 kts | 250° |
| 2026-05-07 16:33 | 51.46821 | -0.44643 | 87 ft | 2 kts | 263° |
| 2026-05-07 16:33 | 51.46820 | -0.44664 | 90 ft | 1 kts | 266° |
| 2026-05-07 16:33 | 51.46820 | -0.44673 | 90 ft | 0 kts | 266° |
| 2026-05-07 16:34 | 51.46820 | -0.44674 | 90 ft | 0 kts | 266° |
| 2026-05-07 16:34 | 51.46820 | -0.44678 | 90 ft | 0 kts | 266° |